sensor_id;sensor_type;location;lat;lon;timestamp;temperature;humidity
3548;DHT22;1788;49.400;11.092;2022-12-07T00:00:29;6.30;67.70
3548;DHT22;1788;49.400;11.092;2022-12-07T00:02:55;6.30;67.60
3548;DHT22;1788;49.400;11.092;2022-12-07T00:05:22;6.30;67.70
3548;DHT22;1788;49.400;11.092;2022-12-07T00:07:49;6.20;67.60
3548;DHT22;1788;49.400;11.092;2022-12-07T00:10:15;6.20;67.70
3548;DHT22;1788;49.400;11.092;2022-12-07T00:12:42;6.20;67.60
3548;DHT22;1788;49.400;11.092;2022-12-07T00:15:09;6.10;67.70
3548;DHT22;1788;49.400;11.092;2022-12-07T00:17:36;6.10;67.70
3548;DHT22;1788;49.400;11.092;2022-12-07T00:20:02;6.10;67.70
3548;DHT22;1788;49.400;11.092;2022-12-07T00:22:29;6.10;67.70
3548;DHT22;1788;49.400;11.092;2022-12-07T00:24:55;6.10;67.70
3548;DHT22;1788;49.400;11.092;2022-12-07T00:27:22;6.10;67.80
3548;DHT22;1788;49.400;11.092;2022-12-07T00:29:49;6.00;68.20
3548;DHT22;1788;49.400;11.092;2022-12-07T00:32:15;6.00;67.80
3548;DHT22;1788;49.400;11.092;2022-12-07T00:34:43;6.00;67.80
3548;DHT22;1788;49.400;11.092;2022-12-07T00:37:09;6.00;67.80
3548;DHT22;1788;49.400;11.092;2022-12-07T00:39:37;6.00;68.60
3548;DHT22;1788;49.400;11.092;2022-12-07T00:42:03;5.90;67.80
3548;DHT22;1788;49.400;11.092;2022-12-07T00:44:30;5.90;67.80
3548;DHT22;1788;49.400;11.092;2022-12-07T00:46:56;5.90;67.80
3548;DHT22;1788;49.400;11.092;2022-12-07T00:49:23;5.90;67.90
3548;DHT22;1788;49.400;11.092;2022-12-07T00:51:50;5.90;68.00
3548;DHT22;1788;49.400;11.092;2022-12-07T00:54:16;5.90;68.00
3548;DHT22;1788;49.400;11.092;2022-12-07T00:56:43;5.90;68.00
3548;DHT22;1788;49.400;11.092;2022-12-07T00:59:11;6.00;68.00
3548;DHT22;1788;49.400;11.092;2022-12-07T01:01:37;6.00;68.00
3548;DHT22;1788;49.400;11.092;2022-12-07T01:04:04;6.00;67.90
3548;DHT22;1788;49.400;11.092;2022-12-07T01:06:30;6.10;67.90
3548;DHT22;1788;49.400;11.092;2022-12-07T01:08:57;6.10;67.80
3548;DHT22;1788;49.400;11.092;2022-12-07T01:11:25;6.20;67.70
3548;DHT22;1788;49.400;11.092;2022-12-07T01:13:51;6.20;67.70
3548;DHT22;1788;49.400;11.092;2022-12-07T01:16:18;6.20;67.70
3548;DHT22;1788;49.400;11.092;2022-12-07T01:18:45;6.20;67.70
3548;DHT22;1788;49.400;11.092;2022-12-07T01:21:12;6.20;67.70
3548;DHT22;1788;49.400;11.092;2022-12-07T01:23:38;6.20;67.70
3548;DHT22;1788;49.400;11.092;2022-12-07T01:26:06;6.20;67.70
3548;DHT22;1788;49.400;11.092;2022-12-07T01:28:31;6.20;67.70
3548;DHT22;1788;49.400;11.092;2022-12-07T01:30:59;6.10;67.60
3548;DHT22;1788;49.400;11.092;2022-12-07T01:33:26;6.10;67.70
3548;DHT22;1788;49.400;11.092;2022-12-07T01:35:52;6.10;67.80
3548;DHT22;1788;49.400;11.092;2022-12-07T01:38:18;6.10;67.70
3548;DHT22;1788;49.400;11.092;2022-12-07T01:40:45;6.10;67.80
3548;DHT22;1788;49.400;11.092;2022-12-07T01:45:39;6.10;67.70
3548;DHT22;1788;49.400;11.092;2022-12-07T01:48:06;6.00;67.80
3548;DHT22;1788;49.400;11.092;2022-12-07T01:50:32;6.00;67.70
3548;DHT22;1788;49.400;11.092;2022-12-07T01:52:59;6.00;67.80
3548;DHT22;1788;49.400;11.092;2022-12-07T01:55:25;6.00;67.90
3548;DHT22;1788;49.400;11.092;2022-12-07T01:57:52;6.00;68.00
3548;DHT22;1788;49.400;11.092;2022-12-07T02:00:19;6.00;68.00
3548;DHT22;1788;49.400;11.092;2022-12-07T02:05:13;6.00;69.00
3548;DHT22;1788;49.400;11.092;2022-12-07T02:07:40;5.90;68.00
3548;DHT22;1788;49.400;11.092;2022-12-07T02:12:33;5.90;68.00
3548;DHT22;1788;49.400;11.092;2022-12-07T02:15:00;6.00;68.20
3548;DHT22;1788;49.400;11.092;2022-12-07T02:32:08;5.90;68.00
3548;DHT22;1788;49.400;11.092;2022-12-07T02:37:01;5.80;68.10
3548;DHT22;1788;49.400;11.092;2022-12-07T02:39:30;5.80;68.00
3548;DHT22;1788;49.400;11.092;2022-12-07T02:41:55;5.80;68.20
3548;DHT22;1788;49.400;11.092;2022-12-07T02:44:21;5.80;68.20
3548;DHT22;1788;49.400;11.092;2022-12-07T02:46:51;5.90;69.10
3548;DHT22;1788;49.400;11.092;2022-12-07T02:49:14;5.80;68.20
3548;DHT22;1788;49.400;11.092;2022-12-07T02:51:41;5.90;68.20
3548;DHT22;1788;49.400;11.092;2022-12-07T03:03:58;5.80;68.20
3548;DHT22;1788;49.400;11.092;2022-12-07T03:06:25;5.70;68.00
3548;DHT22;1788;49.400;11.092;2022-12-07T03:08:50;5.70;68.00
3548;DHT22;1788;49.400;11.092;2022-12-07T03:11:16;5.70;68.20
3548;DHT22;1788;49.400;11.092;2022-12-07T03:16:09;5.70;68.20
3548;DHT22;1788;49.400;11.092;2022-12-07T03:18:36;5.60;68.00
3548;DHT22;1788;49.400;11.092;2022-12-07T03:21:02;5.60;68.20
3548;DHT22;1788;49.400;11.092;2022-12-07T03:23:27;5.60;68.20
3548;DHT22;1788;49.400;11.092;2022-12-07T03:25:55;5.50;68.10
3548;DHT22;1788;49.400;11.092;2022-12-07T03:28:20;5.50;68.10
3548;DHT22;1788;49.400;11.092;2022-12-07T03:33:16;5.50;68.20
3548;DHT22;1788;49.400;11.092;2022-12-07T03:35:42;5.50;68.20
3548;DHT22;1788;49.400;11.092;2022-12-07T03:40:37;5.50;68.20
3548;DHT22;1788;49.400;11.092;2022-12-07T03:43:01;5.50;68.20
3548;DHT22;1788;49.400;11.092;2022-12-07T03:45:31;5.50;68.20
3548;DHT22;1788;49.400;11.092;2022-12-07T03:47:58;5.60;68.20
3548;DHT22;1788;49.400;11.092;2022-12-07T03:55:15;5.60;68.50
3548;DHT22;1788;49.400;11.092;2022-12-07T03:57:41;5.70;67.80
3548;DHT22;1788;49.400;11.092;2022-12-07T04:00:08;5.70;67.70
3548;DHT22;1788;49.400;11.092;2022-12-07T04:02:34;5.70;67.60
3548;DHT22;1788;49.400;11.092;2022-12-07T04:05:01;5.70;67.50
3548;DHT22;1788;49.400;11.092;2022-12-07T04:07:27;5.70;67.30
3548;DHT22;1788;49.400;11.092;2022-12-07T04:09:54;5.70;67.20
3548;DHT22;1788;49.400;11.092;2022-12-07T04:12:21;5.70;67.20
3548;DHT22;1788;49.400;11.092;2022-12-07T04:14:47;5.70;67.20
3548;DHT22;1788;49.400;11.092;2022-12-07T04:17:14;5.60;66.90
3548;DHT22;1788;49.400;11.092;2022-12-07T04:19:41;5.60;66.80
3548;DHT22;1788;49.400;11.092;2022-12-07T04:22:08;5.60;66.70
3548;DHT22;1788;49.400;11.092;2022-12-07T04:24:34;5.60;66.50
3548;DHT22;1788;49.400;11.092;2022-12-07T04:27:01;5.50;66.30
3548;DHT22;1788;49.400;11.092;2022-12-07T04:29:27;5.50;66.20
3548;DHT22;1788;49.400;11.092;2022-12-07T04:31:56;5.40;66.00
3548;DHT22;1788;49.400;11.092;2022-12-07T04:34:22;5.40;66.00
3548;DHT22;1788;49.400;11.092;2022-12-07T04:36:51;5.30;65.90
3548;DHT22;1788;49.400;11.092;2022-12-07T04:41:45;5.20;66.00
3548;DHT22;1788;49.400;11.092;2022-12-07T04:44:11;5.20;66.20
3548;DHT22;1788;49.400;11.092;2022-12-07T04:46:38;5.20;66.40
3548;DHT22;1788;49.400;11.092;2022-12-07T04:49:04;5.10;66.40
3548;DHT22;1788;49.400;11.092;2022-12-07T04:51:32;5.10;66.40
3548;DHT22;1788;49.400;11.092;2022-12-07T04:53:59;5.10;66.40
3548;DHT22;1788;49.400;11.092;2022-12-07T04:56:26;5.10;66.30
3548;DHT22;1788;49.400;11.092;2022-12-07T04:58:53;5.10;66.40
3548;DHT22;1788;49.400;11.092;2022-12-07T05:01:19;5.10;66.50
3548;DHT22;1788;49.400;11.092;2022-12-07T05:03:46;5.10;66.50
3548;DHT22;1788;49.400;11.092;2022-12-07T05:06:13;5.10;66.60
3548;DHT22;1788;49.400;11.092;2022-12-07T05:08:40;5.10;66.60
3548;DHT22;1788;49.400;11.092;2022-12-07T05:11:07;5.10;66.60
3548;DHT22;1788;49.400;11.092;2022-12-07T05:13:33;5.20;66.60
3548;DHT22;1788;49.400;11.092;2022-12-07T05:15:59;5.20;66.70
3548;DHT22;1788;49.400;11.092;2022-12-07T05:18:26;5.20;66.80
3548;DHT22;1788;49.400;11.092;2022-12-07T05:20:53;5.20;67.20
3548;DHT22;1788;49.400;11.092;2022-12-07T05:23:20;5.30;67.00
3548;DHT22;1788;49.400;11.092;2022-12-07T05:25:47;5.30;66.90
3548;DHT22;1788;49.400;11.092;2022-12-07T05:28:14;5.30;67.00
3548;DHT22;1788;49.400;11.092;2022-12-07T05:30:41;5.30;67.10
3548;DHT22;1788;49.400;11.092;2022-12-07T05:33:08;5.20;67.00
3548;DHT22;1788;49.400;11.092;2022-12-07T05:35:35;5.30;67.10
3548;DHT22;1788;49.400;11.092;2022-12-07T05:38:02;5.30;67.10
3548;DHT22;1788;49.400;11.092;2022-12-07T05:40:29;5.30;67.00
3548;DHT22;1788;49.400;11.092;2022-12-07T05:42:55;5.30;67.10
3548;DHT22;1788;49.400;11.092;2022-12-07T05:45:22;5.30;67.20
3548;DHT22;1788;49.400;11.092;2022-12-07T05:47:48;5.30;67.20
3548;DHT22;1788;49.400;11.092;2022-12-07T05:50:15;5.30;67.40
3548;DHT22;1788;49.400;11.092;2022-12-07T05:52:42;5.30;67.40
3548;DHT22;1788;49.400;11.092;2022-12-07T05:55:09;5.30;67.40
3548;DHT22;1788;49.400;11.092;2022-12-07T05:57:36;5.30;67.40
3548;DHT22;1788;49.400;11.092;2022-12-07T06:00:02;5.30;67.40
3548;DHT22;1788;49.400;11.092;2022-12-07T06:02:30;5.30;67.40
3548;DHT22;1788;49.400;11.092;2022-12-07T06:04:56;5.30;67.40
3548;DHT22;1788;49.400;11.092;2022-12-07T06:07:24;5.30;68.10
3548;DHT22;1788;49.400;11.092;2022-12-07T06:09:50;5.30;67.30
3548;DHT22;1788;49.400;11.092;2022-12-07T06:12:17;5.30;67.40
3548;DHT22;1788;49.400;11.092;2022-12-07T06:14:44;5.30;67.40
3548;DHT22;1788;49.400;11.092;2022-12-07T06:17:10;5.30;67.40
3548;DHT22;1788;49.400;11.092;2022-12-07T06:19:37;5.30;67.30
3548;DHT22;1788;49.400;11.092;2022-12-07T06:22:04;5.40;67.40
3548;DHT22;1788;49.400;11.092;2022-12-07T06:24:30;5.40;67.20
3548;DHT22;1788;49.400;11.092;2022-12-07T06:26:57;5.40;67.10
3548;DHT22;1788;49.400;11.092;2022-12-07T06:29:24;5.40;67.00
3548;DHT22;1788;49.400;11.092;2022-12-07T06:31:51;5.40;67.00
3548;DHT22;1788;49.400;11.092;2022-12-07T06:34:19;5.40;67.00
3548;DHT22;1788;49.400;11.092;2022-12-07T06:36:45;5.40;67.00
3548;DHT22;1788;49.400;11.092;2022-12-07T06:39:11;5.40;67.00
3548;DHT22;1788;49.400;11.092;2022-12-07T06:41:38;5.40;67.10
3548;DHT22;1788;49.400;11.092;2022-12-07T06:44:05;5.40;67.10
3548;DHT22;1788;49.400;11.092;2022-12-07T06:46:32;5.30;67.20
3548;DHT22;1788;49.400;11.092;2022-12-07T06:48:58;5.30;67.10
3548;DHT22;1788;49.400;11.092;2022-12-07T06:51:26;5.30;67.40
3548;DHT22;1788;49.400;11.092;2022-12-07T06:53:52;5.30;67.30
3548;DHT22;1788;49.400;11.092;2022-12-07T06:56:20;5.30;67.90
3548;DHT22;1788;49.400;11.092;2022-12-07T06:58:46;5.30;67.30
3548;DHT22;1788;49.400;11.092;2022-12-07T07:01:14;5.30;67.20
3548;DHT22;1788;49.400;11.092;2022-12-07T07:03:40;5.30;67.30
3548;DHT22;1788;49.400;11.092;2022-12-07T07:06:06;5.30;67.30
3548;DHT22;1788;49.400;11.092;2022-12-07T07:08:34;5.40;67.30
3548;DHT22;1788;49.400;11.092;2022-12-07T07:11:00;5.40;67.20
3548;DHT22;1788;49.400;11.092;2022-12-07T07:13:27;5.40;67.20
3548;DHT22;1788;49.400;11.092;2022-12-07T07:15:54;5.40;67.10
3548;DHT22;1788;49.400;11.092;2022-12-07T07:18:20;5.40;67.10
3548;DHT22;1788;49.400;11.092;2022-12-07T07:20:47;5.50;67.10
3548;DHT22;1788;49.400;11.092;2022-12-07T07:23:13;5.40;67.00
3548;DHT22;1788;49.400;11.092;2022-12-07T07:25:40;5.50;67.20
3548;DHT22;1788;49.400;11.092;2022-12-07T07:28:06;5.50;67.20
3548;DHT22;1788;49.400;11.092;2022-12-07T07:30:34;5.50;67.20
3548;DHT22;1788;49.400;11.092;2022-12-07T07:33:01;5.50;67.00
3548;DHT22;1788;49.400;11.092;2022-12-07T07:35:27;5.50;67.00
3548;DHT22;1788;49.400;11.092;2022-12-07T07:37:54;5.60;67.10
3548;DHT22;1788;49.400;11.092;2022-12-07T07:40:20;5.60;67.00
3548;DHT22;1788;49.400;11.092;2022-12-07T07:42:47;5.60;67.00
3548;DHT22;1788;49.400;11.092;2022-12-07T07:45:13;5.60;67.00
3548;DHT22;1788;49.400;11.092;2022-12-07T07:47:40;5.70;67.00
3548;DHT22;1788;49.400;11.092;2022-12-07T07:50:07;5.70;66.90
3548;DHT22;1788;49.400;11.092;2022-12-07T07:52:34;5.80;66.90
3548;DHT22;1788;49.400;11.092;2022-12-07T07:55:01;5.80;66.80
3548;DHT22;1788;49.400;11.092;2022-12-07T07:57:27;5.80;66.80
3548;DHT22;1788;49.400;11.092;2022-12-07T07:59:54;5.80;66.80
3548;DHT22;1788;49.400;11.092;2022-12-07T08:02:21;5.80;66.80
3548;DHT22;1788;49.400;11.092;2022-12-07T08:04:47;5.80;66.80
3548;DHT22;1788;49.400;11.092;2022-12-07T08:07:14;5.80;66.80
3548;DHT22;1788;49.400;11.092;2022-12-07T08:09:40;5.90;66.90
3548;DHT22;1788;49.400;11.092;2022-12-07T08:12:07;5.90;66.80
3548;DHT22;1788;49.400;11.092;2022-12-07T08:14:34;5.90;66.90
3548;DHT22;1788;49.400;11.092;2022-12-07T08:17:01;5.90;66.80
3548;DHT22;1788;49.400;11.092;2022-12-07T08:19:28;5.90;66.80
3548;DHT22;1788;49.400;11.092;2022-12-07T08:21:55;5.90;66.80
3548;DHT22;1788;49.400;11.092;2022-12-07T08:24:23;5.90;67.50
3548;DHT22;1788;49.400;11.092;2022-12-07T08:26:49;5.80;66.80
3548;DHT22;1788;49.400;11.092;2022-12-07T08:29:15;5.90;66.90
3548;DHT22;1788;49.400;11.092;2022-12-07T08:31:43;5.90;67.70
3548;DHT22;1788;49.400;11.092;2022-12-07T08:34:10;5.90;67.00
3548;DHT22;1788;49.400;11.092;2022-12-07T08:36:36;5.90;67.70
3548;DHT22;1788;49.400;11.092;2022-12-07T08:39:03;5.90;67.40
3548;DHT22;1788;49.400;11.092;2022-12-07T08:41:30;5.80;66.80
3548;DHT22;1788;49.400;11.092;2022-12-07T08:43:57;5.80;66.80
3548;DHT22;1788;49.400;11.092;2022-12-07T08:46:24;5.80;66.80
3548;DHT22;1788;49.400;11.092;2022-12-07T08:51:17;5.80;66.90
3548;DHT22;1788;49.400;11.092;2022-12-07T08:53:44;5.80;66.90
3548;DHT22;1788;49.400;11.092;2022-12-07T08:56:11;5.80;66.90
3548;DHT22;1788;49.400;11.092;2022-12-07T08:58:38;5.70;66.80
3548;DHT22;1788;49.400;11.092;2022-12-07T09:01:05;5.70;66.70
3548;DHT22;1788;49.400;11.092;2022-12-07T09:03:32;5.70;66.70
3548;DHT22;1788;49.400;11.092;2022-12-07T09:05:58;5.70;66.70
3548;DHT22;1788;49.400;11.092;2022-12-07T09:08:26;5.70;66.70
3548;DHT22;1788;49.400;11.092;2022-12-07T09:10:52;5.70;66.90
3548;DHT22;1788;49.400;11.092;2022-12-07T09:13:18;5.70;66.90
3548;DHT22;1788;49.400;11.092;2022-12-07T09:15:45;5.70;66.90
3548;DHT22;1788;49.400;11.092;2022-12-07T09:18:12;5.70;67.00
3548;DHT22;1788;49.400;11.092;2022-12-07T09:20:38;5.70;67.00
3548;DHT22;1788;49.400;11.092;2022-12-07T09:23:06;5.70;67.00
3548;DHT22;1788;49.400;11.092;2022-12-07T09:25:33;5.70;66.90
3548;DHT22;1788;49.400;11.092;2022-12-07T09:28:00;5.80;67.00
3548;DHT22;1788;49.400;11.092;2022-12-07T09:30:27;5.80;67.00
3548;DHT22;1788;49.400;11.092;2022-12-07T09:32:54;5.80;66.90
3548;DHT22;1788;49.400;11.092;2022-12-07T09:35:19;5.80;66.80
3548;DHT22;1788;49.400;11.092;2022-12-07T09:37:46;5.90;66.80
3548;DHT22;1788;49.400;11.092;2022-12-07T09:40:13;5.90;66.80
3548;DHT22;1788;49.400;11.092;2022-12-07T09:42:41;5.90;66.80
3548;DHT22;1788;49.400;11.092;2022-12-07T09:45:06;5.90;66.90
3548;DHT22;1788;49.400;11.092;2022-12-07T09:47:33;5.90;66.80
3548;DHT22;1788;49.400;11.092;2022-12-07T09:52:26;5.90;66.80
3548;DHT22;1788;49.400;11.092;2022-12-07T09:54:52;5.90;66.90
3548;DHT22;1788;49.400;11.092;2022-12-07T09:57:20;5.90;67.10
3548;DHT22;1788;49.400;11.092;2022-12-07T09:59:45;5.90;67.20
3548;DHT22;1788;49.400;11.092;2022-12-07T10:04:39;5.90;67.10
3548;DHT22;1788;49.400;11.092;2022-12-07T10:07:05;5.90;67.00
3548;DHT22;1788;49.400;11.092;2022-12-07T10:09:32;5.90;67.20
3548;DHT22;1788;49.400;11.092;2022-12-07T10:14:26;5.90;67.20
3548;DHT22;1788;49.400;11.092;2022-12-07T10:16:53;5.90;67.70
3548;DHT22;1788;49.400;11.092;2022-12-07T10:24:14;5.90;67.40
3548;DHT22;1788;49.400;11.092;2022-12-07T10:26:46;5.90;67.30
3548;DHT22;1788;49.400;11.092;2022-12-07T10:31:33;6.00;67.50
3548;DHT22;1788;49.400;11.092;2022-12-07T10:34:00;6.00;67.50
3548;DHT22;1788;49.400;11.092;2022-12-07T10:38:59;6.00;67.50
3548;DHT22;1788;49.400;11.092;2022-12-07T10:41:19;6.00;67.30
3548;DHT22;1788;49.400;11.092;2022-12-07T10:43:47;6.10;67.40
3548;DHT22;1788;49.400;11.092;2022-12-07T10:58:31;6.20;67.90
3548;DHT22;1788;49.400;11.092;2022-12-07T11:03:23;6.30;67.50
3548;DHT22;1788;49.400;11.092;2022-12-07T11:08:18;6.30;67.40
3548;DHT22;1788;49.400;11.092;2022-12-07T11:10:44;6.30;67.40
3548;DHT22;1788;49.400;11.092;2022-12-07T11:18:03;6.40;67.50
3548;DHT22;1788;49.400;11.092;2022-12-07T11:30:18;6.30;67.30
3548;DHT22;1788;49.400;11.092;2022-12-07T11:37:37;6.40;67.50
3548;DHT22;1788;49.400;11.092;2022-12-07T11:42:33;6.40;67.50
3548;DHT22;1788;49.400;11.092;2022-12-07T11:44:59;6.40;67.40
3548;DHT22;1788;49.400;11.092;2022-12-07T11:52:20;6.40;67.40
3548;DHT22;1788;49.400;11.092;2022-12-07T11:54:43;6.40;67.50
3548;DHT22;1788;49.400;11.092;2022-12-07T11:57:12;6.50;67.60
3548;DHT22;1788;49.400;11.092;2022-12-07T11:59:38;6.40;67.50
3548;DHT22;1788;49.400;11.092;2022-12-07T12:02:12;6.50;67.50
3548;DHT22;1788;49.400;11.092;2022-12-07T12:06:56;6.50;67.40
3548;DHT22;1788;49.400;11.092;2022-12-07T12:09:25;6.50;67.50
3548;DHT22;1788;49.400;11.092;2022-12-07T12:11:58;6.40;67.40
3548;DHT22;1788;49.400;11.092;2022-12-07T12:21:37;6.50;67.50
3548;DHT22;1788;49.400;11.092;2022-12-07T12:24:05;6.50;67.50
3548;DHT22;1788;49.400;11.092;2022-12-07T12:26:32;6.50;67.60
3548;DHT22;1788;49.400;11.092;2022-12-07T12:28:59;6.50;67.50
3548;DHT22;1788;49.400;11.092;2022-12-07T12:33:52;6.60;67.50
3548;DHT22;1788;49.400;11.092;2022-12-07T12:36:19;6.60;67.50
3548;DHT22;1788;49.400;11.092;2022-12-07T12:41:51;6.50;67.30
3548;DHT22;1788;49.400;11.092;2022-12-07T12:48:35;6.50;67.30
3548;DHT22;1788;49.400;11.092;2022-12-07T12:53:24;6.60;67.40
3548;DHT22;1788;49.400;11.092;2022-12-07T12:58:25;6.50;67.20
3548;DHT22;1788;49.400;11.092;2022-12-07T13:05:37;6.60;67.30
3548;DHT22;1788;49.400;11.092;2022-12-07T13:10:33;6.60;67.40
3548;DHT22;1788;49.400;11.092;2022-12-07T13:22:43;6.60;67.20
3548;DHT22;1788;49.400;11.092;2022-12-07T13:27:37;6.60;67.20
3548;DHT22;1788;49.400;11.092;2022-12-07T13:30:09;6.60;67.10
3548;DHT22;1788;49.400;11.092;2022-12-07T13:32:31;6.60;67.10
3548;DHT22;1788;49.400;11.092;2022-12-07T13:34:58;6.60;67.60
3548;DHT22;1788;49.400;11.092;2022-12-07T13:37:26;6.60;67.20
3548;DHT22;1788;49.400;11.092;2022-12-07T13:39:53;6.60;67.20
3548;DHT22;1788;49.400;11.092;2022-12-07T13:42:26;6.60;67.10
3548;DHT22;1788;49.400;11.092;2022-12-07T13:44:44;6.50;67.00
3548;DHT22;1788;49.400;11.092;2022-12-07T13:49:39;6.50;67.10
3548;DHT22;1788;49.400;11.092;2022-12-07T13:54:31;6.50;67.10
3548;DHT22;1788;49.400;11.092;2022-12-07T13:56:57;6.50;67.10
3548;DHT22;1788;49.400;11.092;2022-12-07T13:59:24;6.40;67.10
3548;DHT22;1788;49.400;11.092;2022-12-07T14:01:51;6.40;67.20
3548;DHT22;1788;49.400;11.092;2022-12-07T14:11:37;6.40;67.40
3548;DHT22;1788;49.400;11.092;2022-12-07T14:14:04;6.40;67.50
3548;DHT22;1788;49.400;11.092;2022-12-07T14:16:32;6.40;67.40
3548;DHT22;1788;49.400;11.092;2022-12-07T14:18:59;6.40;67.40
3548;DHT22;1788;49.400;11.092;2022-12-07T14:21:27;6.50;68.30
3548;DHT22;1788;49.400;11.092;2022-12-07T14:26:20;6.50;67.70
3548;DHT22;1788;49.400;11.092;2022-12-07T14:28:46;6.60;67.80
3548;DHT22;1788;49.400;11.092;2022-12-07T14:31:14;6.70;67.90
3548;DHT22;1788;49.400;11.092;2022-12-07T14:33:39;6.70;67.90
3548;DHT22;1788;49.400;11.092;2022-12-07T14:36:08;6.70;67.80
3548;DHT22;1788;49.400;11.092;2022-12-07T14:38:32;6.80;67.80
3548;DHT22;1788;49.400;11.092;2022-12-07T14:40:59;6.80;67.60
3548;DHT22;1788;49.400;11.092;2022-12-07T14:43:26;6.80;67.30
3548;DHT22;1788;49.400;11.092;2022-12-07T14:45:53;6.80;67.30
3548;DHT22;1788;49.400;11.092;2022-12-07T14:48:20;6.70;67.80
3548;DHT22;1788;49.400;11.092;2022-12-07T14:53:14;6.70;67.00
3548;DHT22;1788;49.400;11.092;2022-12-07T14:55:40;6.70;67.10
3548;DHT22;1788;49.400;11.092;2022-12-07T14:58:11;6.70;67.20
3548;DHT22;1788;49.400;11.092;2022-12-07T15:00:33;6.70;67.20
3548;DHT22;1788;49.400;11.092;2022-12-07T15:03:00;6.70;67.30
3548;DHT22;1788;49.400;11.092;2022-12-07T15:05:27;6.70;67.30
3548;DHT22;1788;49.400;11.092;2022-12-07T15:07:53;6.70;67.20
3548;DHT22;1788;49.400;11.092;2022-12-07T15:12:46;6.70;67.20
3548;DHT22;1788;49.400;11.092;2022-12-07T15:15:13;6.70;67.30
3548;DHT22;1788;49.400;11.092;2022-12-07T15:17:40;6.70;67.40
3548;DHT22;1788;49.400;11.092;2022-12-07T15:20:08;6.70;67.80
3548;DHT22;1788;49.400;11.092;2022-12-07T15:22:33;6.90;68.60
3548;DHT22;1788;49.400;11.092;2022-12-07T15:24:59;7.20;69.00
3548;DHT22;1788;49.400;11.092;2022-12-07T15:27:26;7.30;68.20
3548;DHT22;1788;49.400;11.092;2022-12-07T15:29:53;7.30;67.50
3548;DHT22;1788;49.400;11.092;2022-12-07T15:32:19;7.30;67.10
3548;DHT22;1788;49.400;11.092;2022-12-07T15:34:46;7.20;66.90
3548;DHT22;1788;49.400;11.092;2022-12-07T15:37:13;7.00;66.90
3548;DHT22;1788;49.400;11.092;2022-12-07T15:39:40;7.00;66.80
3548;DHT22;1788;49.400;11.092;2022-12-07T15:42:07;6.80;67.60
3548;DHT22;1788;49.400;11.092;2022-12-07T15:44:34;6.80;66.80
3548;DHT22;1788;49.400;11.092;2022-12-07T15:47:00;6.70;66.90
3548;DHT22;1788;49.400;11.092;2022-12-07T15:49:27;6.60;66.90
3548;DHT22;1788;49.400;11.092;2022-12-07T15:51:54;6.60;67.00
3548;DHT22;1788;49.400;11.092;2022-12-07T15:54:22;6.50;67.00
3548;DHT22;1788;49.400;11.092;2022-12-07T15:56:47;6.50;67.20
3548;DHT22;1788;49.400;11.092;2022-12-07T15:59:14;6.50;67.50
3548;DHT22;1788;49.400;11.092;2022-12-07T16:01:40;6.50;67.50
3548;DHT22;1788;49.400;11.092;2022-12-07T16:04:07;6.50;67.40
3548;DHT22;1788;49.400;11.092;2022-12-07T16:06:33;6.40;67.20
3548;DHT22;1788;49.400;11.092;2022-12-07T16:09:00;6.40;67.20
3548;DHT22;1788;49.400;11.092;2022-12-07T16:11:27;6.40;67.20
3548;DHT22;1788;49.400;11.092;2022-12-07T16:13:53;6.40;67.20
3548;DHT22;1788;49.400;11.092;2022-12-07T16:16:20;6.40;67.10
3548;DHT22;1788;49.400;11.092;2022-12-07T16:18:47;6.30;67.00
3548;DHT22;1788;49.400;11.092;2022-12-07T16:21:13;6.30;67.10
3548;DHT22;1788;49.400;11.092;2022-12-07T16:23:40;6.30;67.20
3548;DHT22;1788;49.400;11.092;2022-12-07T16:26:08;6.30;67.20
3548;DHT22;1788;49.400;11.092;2022-12-07T16:28:33;6.20;67.10
3548;DHT22;1788;49.400;11.092;2022-12-07T16:33:27;6.20;67.10
3548;DHT22;1788;49.400;11.092;2022-12-07T16:35:54;6.10;66.90
3548;DHT22;1788;49.400;11.092;2022-12-07T16:38:21;6.10;67.00
3548;DHT22;1788;49.400;11.092;2022-12-07T16:40:47;6.10;67.00
3548;DHT22;1788;49.400;11.092;2022-12-07T16:43:14;6.10;67.10
3548;DHT22;1788;49.400;11.092;2022-12-07T16:45:41;6.00;67.20
3548;DHT22;1788;49.400;11.092;2022-12-07T16:48:07;6.00;67.40
3548;DHT22;1788;49.400;11.092;2022-12-07T16:50:34;6.00;67.40
3548;DHT22;1788;49.400;11.092;2022-12-07T16:53:01;6.00;67.50
3548;DHT22;1788;49.400;11.092;2022-12-07T16:55:27;6.00;67.70
3548;DHT22;1788;49.400;11.092;2022-12-07T16:57:54;6.00;67.80
3548;DHT22;1788;49.400;11.092;2022-12-07T17:00:20;6.00;67.70
3548;DHT22;1788;49.400;11.092;2022-12-07T17:02:47;6.10;67.70
3548;DHT22;1788;49.400;11.092;2022-12-07T17:05:14;6.10;67.70
3548;DHT22;1788;49.400;11.092;2022-12-07T17:07:40;6.10;67.60
3548;DHT22;1788;49.400;11.092;2022-12-07T17:10:07;6.10;67.60
3548;DHT22;1788;49.400;11.092;2022-12-07T17:12:34;6.10;67.60
3548;DHT22;1788;49.400;11.092;2022-12-07T17:15:01;6.20;67.70
3548;DHT22;1788;49.400;11.092;2022-12-07T17:17:28;6.20;67.90
3548;DHT22;1788;49.400;11.092;2022-12-07T17:19:55;6.20;67.70
3548;DHT22;1788;49.400;11.092;2022-12-07T17:22:21;6.30;67.90
3548;DHT22;1788;49.400;11.092;2022-12-07T17:24:48;6.30;67.80
3548;DHT22;1788;49.400;11.092;2022-12-07T17:27:15;6.30;67.70
3548;DHT22;1788;49.400;11.092;2022-12-07T17:29:43;6.30;67.60
3548;DHT22;1788;49.400;11.092;2022-12-07T17:32:09;6.30;67.60
3548;DHT22;1788;49.400;11.092;2022-12-07T17:34:36;6.30;67.50
3548;DHT22;1788;49.400;11.092;2022-12-07T17:37:03;6.30;67.50
3548;DHT22;1788;49.400;11.092;2022-12-07T17:39:30;6.40;67.60
3548;DHT22;1788;49.400;11.092;2022-12-07T17:41:56;6.30;67.40
3548;DHT22;1788;49.400;11.092;2022-12-07T17:44:23;6.40;67.50
3548;DHT22;1788;49.400;11.092;2022-12-07T17:46:51;6.40;67.50
3548;DHT22;1788;49.400;11.092;2022-12-07T17:49:17;6.40;67.40
3548;DHT22;1788;49.400;11.092;2022-12-07T17:51:43;6.30;67.20
3548;DHT22;1788;49.400;11.092;2022-12-07T17:54:10;6.30;67.20
3548;DHT22;1788;49.400;11.092;2022-12-07T17:56:37;6.30;67.20
3548;DHT22;1788;49.400;11.092;2022-12-07T17:59:04;6.30;67.20
3548;DHT22;1788;49.400;11.092;2022-12-07T18:01:30;6.30;67.20
3548;DHT22;1788;49.400;11.092;2022-12-07T18:03:57;6.30;67.00
3548;DHT22;1788;49.400;11.092;2022-12-07T18:06:24;6.30;67.00
3548;DHT22;1788;49.400;11.092;2022-12-07T18:08:51;6.30;66.90
3548;DHT22;1788;49.400;11.092;2022-12-07T18:11:17;6.30;66.90
3548;DHT22;1788;49.400;11.092;2022-12-07T18:13:44;6.30;66.90
3548;DHT22;1788;49.400;11.092;2022-12-07T18:16:12;6.30;66.90
3548;DHT22;1788;49.400;11.092;2022-12-07T18:18:37;6.30;66.90
3548;DHT22;1788;49.400;11.092;2022-12-07T18:21:04;6.30;67.00
3548;DHT22;1788;49.400;11.092;2022-12-07T18:23:30;6.20;67.00
3548;DHT22;1788;49.400;11.092;2022-12-07T18:25:57;6.20;67.00
3548;DHT22;1788;49.400;11.092;2022-12-07T18:28:23;6.10;67.00
3548;DHT22;1788;49.400;11.092;2022-12-07T18:30:50;6.10;67.10
3548;DHT22;1788;49.400;11.092;2022-12-07T18:33:17;6.00;67.20
3548;DHT22;1788;49.400;11.092;2022-12-07T18:35:44;6.00;67.30
3548;DHT22;1788;49.400;11.092;2022-12-07T18:38:10;6.00;67.30
3548;DHT22;1788;49.400;11.092;2022-12-07T18:40:37;5.90;67.30
3548;DHT22;1788;49.400;11.092;2022-12-07T18:43:03;5.90;67.40
3548;DHT22;1788;49.400;11.092;2022-12-07T18:45:33;5.90;67.40
3548;DHT22;1788;49.400;11.092;2022-12-07T18:47:56;5.90;67.50
3548;DHT22;1788;49.400;11.092;2022-12-07T18:50:23;5.80;67.40
3548;DHT22;1788;49.400;11.092;2022-12-07T18:52:50;5.80;67.40
3548;DHT22;1788;49.400;11.092;2022-12-07T18:57:44;5.80;67.60